Time;durP1;ratioP1;P1;durP2;ratioP2;P2;SDS_P1;SDS_P2;PMS_P1;PMS_P2;Temp;Humidity;BMP_temperature;BMP_pressure;BME280_temperature;BME280_humidity;BME280_pressure;Samples;Min_cycle;Max_cycle;Signal;HPM_P1;HPM_P2
2022/02/10 00:35:06;;;;;;;4.30;3.70;;;5.40;99.90;;;;;;4973371;28;20459;-63
2022/02/10 00:37:51;;;;;;;7.53;4.20;;;5.40;99.90;;;;;;4973571;28;20416;-63
2022/02/10 00:40:20;;;;;;;5.00;3.80;;;5.40;99.90;;;;;;4973511;28;20798;-63
2022/02/10 00:42:47;;;;;;;7.13;4.83;;;5.30;99.90;;;;;;4978860;28;20454;-63
2022/02/10 00:45:12;;;;;;;8.23;5.10;;;5.30;99.90;;;;;;4989602;28;20530;-63
2022/02/10 00:47:53;;;;;;;5.70;4.57;;;5.20;99.90;;;;;;4992801;28;20450;-63
2022/02/10 00:50:22;;;;;;;4.33;3.93;;;5.20;99.90;;;;;;4992867;28;20175;-63
2022/02/10 00:52:49;;;;;;;5.43;4.30;;;5.10;99.90;;;;;;4992800;28;20434;-63
2022/02/10 00:55:17;;;;;;;7.90;4.37;;;5.00;99.90;;;;;;4992420;28;20466;-63
2022/02/10 00:57:43;;;;;;;5.50;3.60;;;5.00;99.90;;;;;;4992814;28;20481;-63
2022/02/10 01:13:27;;;;;;;4.43;4.03;;;5.00;99.90;;;;;;4973252;28;20172;-63
2022/02/10 01:29:39;;;;;;;4.47;3.30;;;5.00;99.90;;;;;;4973121;28;20474;-63
2022/02/10 01:32:05;;;;;;;3.50;3.20;;;5.00;99.90;;;;;;4972975;28;20431;-63
2022/02/10 01:34:33;;;;;;;5.00;3.43;;;4.90;99.90;;;;;;4976025;28;20459;-63
2022/02/10 01:36:58;;;;;;;5.43;3.53;;;4.90;99.90;;;;;;4976540;28;20419;-63
2022/02/10 01:39:30;;;;;;;3.63;3.27;;;4.90;99.90;;;;;;4976738;28;20939;-63
2022/02/10 02:03:49;;;;;;;7.37;4.07;;;4.80;99.90;;;;;;4976311;28;20446;-64
2022/02/10 02:06:22;;;;;;;4.00;3.00;;;4.80;99.90;;;;;;4976086;28;20427;-64
2022/02/10 02:08:48;;;;;;;5.10;3.20;;;4.80;99.90;;;;;;4979771;28;20578;-63
2022/02/10 02:11:14;;;;;;;3.77;3.37;;;4.90;99.90;;;;;;4986239;28;20415;-64
2022/02/10 02:13:39;;;;;;;6.20;3.57;;;4.80;99.90;;;;;;4979602;28;20238;-63
2022/02/10 02:16:05;;;;;;;4.23;3.27;;;4.80;99.90;;;;;;4984594;28;20215;-63
2022/02/10 02:18:32;;;;;;;5.30;4.10;;;4.70;99.90;;;;;;4989450;28;20254;-63
2022/02/10 02:20:58;;;;;;;4.43;3.57;;;4.70;99.90;;;;;;4995455;28;20919;-63
2022/02/10 02:23:26;;;;;;;6.40;3.30;;;4.70;99.90;;;;;;4995346;28;20434;-63
2022/02/10 02:25:58;;;;;;;3.47;3.17;;;4.70;99.90;;;;;;4995086;28;20860;-63
2022/02/10 02:28:24;;;;;;;6.30;3.40;;;4.70;99.90;;;;;;4995426;28;20419;-63
2022/02/10 02:30:58;;;;;;;4.10;2.77;;;4.70;99.90;;;;;;4995247;28;20425;-63
2022/02/10 03:08:19;;;;;;;3.33;3.03;;;4.60;99.90;;;;;;4994810;28;20928;-63
2022/02/10 03:13:19;;;;;;;3.50;3.20;;;4.50;99.90;;;;;;4994546;28;20446;-63
2022/02/10 04:05:04;;;;;;;6.37;3.37;;;4.80;99.90;;;;;;4993598;28;20443;-62
2022/02/10 04:10:19;;;;;;;4.50;3.37;;;4.80;99.90;;;;;;4993575;28;20889;-63
2022/02/10 04:15:28;;;;;;;3.80;2.70;;;5.00;99.90;;;;;;4993006;28;20462;-63
2022/02/10 04:20:50;;;;;;;4.80;2.60;;;5.00;99.90;;;;;;4981548;28;20412;-63
2022/02/10 04:23:36;;;;;;;2.30;2.10;;;5.00;99.90;;;;;;4983830;28;20930;-63
2022/02/10 04:40:42;;;;;;;6.80;3.30;;;5.20;99.90;;;;;;4992813;28;20505;-63
2022/02/10 04:42:57;;;;;;;2.50;2.30;;;5.20;99.90;;;;;;4988813;28;20529;-63
2022/02/10 04:53:04;;;;;;;4.50;3.07;;;5.20;99.90;;;;;;4992426;28;20442;-63
2022/02/10 04:56:13;;;;;;;3.57;2.70;;;5.10;99.90;;;;;;4992181;28;20466;-62
2022/02/10 05:33:08;;;;;;;8.33;3.80;;;4.70;99.90;;;;;;4992527;28;20430;-63
2022/02/10 05:35:50;;;;;;;4.90;3.20;;;4.70;99.90;;;;;;4991885;28;20453;-63
2022/02/10 05:38:27;;;;;;;3.77;3.37;;;4.70;99.90;;;;;;4992257;28;20411;-63
2022/02/10 05:41:47;;;;;;;6.70;3.67;;;4.70;99.90;;;;;;4992214;28;20419;-63
2022/02/10 05:57:15;;;;;;;5.03;4.53;;;4.30;99.90;;;;;;4992020;28;20423;-63
2022/02/10 06:51:20;;;;;;;4.67;3.60;;;4.20;99.90;;;;;;4995087;28;20926;-63
2022/02/10 07:12:58;;;;;;;4.47;4.07;;;4.60;99.90;;;;;;4994765;28;20418;-63
2022/02/10 08:49:44;;;;;;;5.10;4.60;;;12.60;99.90;;;;;;4993027;28;20427;-64
2022/02/10 08:56:48;;;;;;;9.63;4.60;;;15.90;93.80;;;;;;4988842;28;20465;-65
2022/02/10 10:02:30;;;;;;;6.30;4.30;;;19.50;71.80;;;;;;4995280;28;20260;-65
2022/02/10 10:05:09;;;;;;;6.00;4.53;;;20.10;69.90;;;;;;4995179;28;20530;-65
2022/02/10 10:15:44;;;;;;;8.97;7.40;;;17.50;75.70;;;;;;4994771;28;20881;-64
2022/02/10 10:18:41;;;;;;;8.37;4.60;;;18.80;74.10;;;;;;4979000;28;20520;-65
2022/02/10 10:23:56;;;;;;;11.60;5.50;;;20.00;67.80;;;;;;4975735;28;20447;-65
2022/02/10 10:52:09;;;;;;;5.90;4.70;;;19.60;57.50;;;;;;4975254;28;20423;-65
2022/02/10 10:57:14;;;;;;;7.70;5.80;;;17.40;62.40;;;;;;4971757;28;20554;-65
2022/02/10 11:06:45;;;;;;;9.43;6.00;;;16.10;68.70;;;;;;4973511;28;20570;-65
2022/02/10 11:39:20;;;;;;;6.33;4.63;;;21.90;56.50;;;;;;4972072;28;20424;-67
2022/02/10 11:42:03;;;;;;;7.40;5.00;;;19.90;58.60;;;;;;4974323;28;20430;-66
2022/02/10 11:46:12;;;;;;;5.80;5.30;;;20.00;59.80;;;;;;4973956;28;20883;-66
2022/02/10 12:34:49;;;;;;;6.20;5.60;;;22.90;56.10;;;;;;4970125;28;20443;-66
2022/02/10 12:36:57;;;;;;;7.30;5.10;;;21.00;58.00;;;;;;4969663;28;20478;-66
2022/02/10 12:43:07;;;;;;;12.83;9.83;;;19.50;59.90;;;;;;4969864;28;21109;-65
2022/02/10 13:48:14;;;;;;;11.67;7.23;;;12.20;98.80;;;;;;4995682;28;20477;-65
2022/02/10 14:12:41;;;;;;;14.93;8.07;;;11.70;99.90;;;;;;4896614;29;20494;-65
2022/02/10 14:14:59;;;;;;;8.90;6.23;;;11.70;99.90;;;;;;4896261;29;20473;-65
2022/02/10 14:17:32;;;;;;;7.90;6.47;;;11.60;99.90;;;;;;4958269;28;20443;-65
2022/02/10 14:20:00;;;;;;;8.70;7.03;;;11.50;99.90;;;;;;4994307;28;20419;-66
2022/02/10 14:22:39;;;;;;;13.17;8.10;;;11.60;99.90;;;;;;4994808;28;20801;-66
2022/02/10 14:27:59;;;;;;;9.23;8.37;;;11.40;99.90;;;;;;4932157;28;20616;-65
2022/02/10 14:30:25;;;;;;;13.37;11.97;;;11.10;99.90;;;;;;4980632;28;20477;-65
2022/02/10 14:32:51;;;;;;;10.93;9.70;;;11.10;99.90;;;;;;4974636;28;20211;-65
2022/02/10 14:35:23;;;;;;;9.70;8.27;;;10.80;99.90;;;;;;4974554;28;20192;-65
2022/02/10 15:21:31;;;;;;;11.67;7.87;;;9.60;99.90;;;;;;4974347;28;20430;-65
2022/02/10 15:54:17;;;;;;;8.90;4.90;;;9.80;99.90;;;;;;4973680;28;20447;-66
2022/02/10 16:17:45;;;;;;;4.73;4.23;;;9.40;99.90;;;;;;4974583;28;20522;-65
2022/02/10 16:20:17;;;;;;;9.60;5.20;;;9.40;99.90;;;;;;4972817;28;20586;-65
2022/02/10 16:22:58;;;;;;;7.20;4.90;;;9.30;99.90;;;;;;4973294;28;20447;-66
2022/02/10 16:25:25;;;;;;;10.90;8.40;;;9.30;99.90;;;;;;4973540;28;20424;-66
2022/02/10 16:27:57;;;;;;;18.97;10.20;;;9.20;99.90;;;;;;4969200;28;20439;-66
2022/02/10 16:30:24;;;;;;;9.20;6.80;;;9.30;99.90;;;;;;4989340;28;20433;-65
2022/02/10 16:32:50;;;;;;;6.70;6.00;;;9.30;99.90;;;;;;4992048;28;20432;-65
2022/02/10 16:35:15;;;;;;;7.67;4.27;;;9.30;99.90;;;;;;4992171;28;20549;-66
2022/02/10 16:37:44;;;;;;;6.33;4.07;;;9.20;99.90;;;;;;4982985;28;20184;-65
2022/02/10 16:40:10;;;;;;;6.53;4.57;;;9.10;99.90;;;;;;4992101;28;20172;-66
2022/02/10 16:42:36;;;;;;;4.57;4.10;;;9.10;99.90;;;;;;4992325;28;20500;-66
2022/02/10 16:45:02;;;;;;;6.10;4.97;;;9.00;99.90;;;;;;4973275;28;20928;-65
2022/02/10 16:47:28;;;;;;;4.67;4.27;;;8.90;99.90;;;;;;4972436;28;20200;-65
2022/02/10 16:49:54;;;;;;;5.10;4.60;;;8.70;99.90;;;;;;4972502;28;20634;-65
2022/02/10 16:52:27;;;;;;;5.73;4.13;;;8.70;99.90;;;;;;4972565;28;20557;-65
2022/02/10 16:55:05;;;;;;;3.77;3.33;;;8.60;99.90;;;;;;4971640;28;20212;-65
2022/02/10 17:02:53;;;;;;;4.83;4.00;;;8.70;99.90;;;;;;4972954;28;20403;-65
2022/02/10 17:05:31;;;;;;;4.53;4.23;;;8.70;99.90;;;;;;4972088;28;20434;-65
2022/02/10 17:19:02;;;;;;;3.97;3.60;;;8.50;99.90;;;;;;4972894;28;20933;-66
2022/02/10 17:25:05;;;;;;;5.20;4.00;;;8.50;99.90;;;;;;4972737;28;20503;-65
2022/02/10 17:27:05;;;;;;;4.30;3.80;;;8.60;99.90;;;;;;4972336;28;20489;-65
2022/02/10 17:29:47;;;;;;;5.87;3.70;;;8.50;99.90;;;;;;4972493;28;20416;-65
2022/02/10 17:32:20;;;;;;;5.57;4.37;;;8.50;99.90;;;;;;4972549;28;20893;-66
2022/02/10 17:37:27;;;;;;;8.77;4.50;;;8.40;99.90;;;;;;4972547;28;20510;-66
2022/02/10 17:53:40;;;;;;;5.87;4.17;;;8.50;99.90;;;;;;4972421;28;20445;-67
2022/02/10 17:56:06;;;;;;;5.93;4.10;;;8.50;99.90;;;;;;4972136;28;21031;-66
2022/02/10 17:58:32;;;;;;;6.30;3.93;;;8.50;99.90;;;;;;4972636;28;20926;-66
2022/02/10 18:00:59;;;;;;;4.53;3.87;;;8.40;99.90;;;;;;4972665;28;20416;-65
2022/02/10 18:03:26;;;;;;;4.60;3.90;;;8.40;99.90;;;;;;4972371;28;20192;-67
2022/02/10 18:12:13;;;;;;;6.10;4.80;;;8.30;99.90;;;;;;4972700;28;20438;-67
2022/02/10 18:16:56;;;;;;;6.07;4.17;;;8.20;99.90;;;;;;4975747;28;20427;-67
2022/02/10 18:19:26;;;;;;;4.90;3.50;;;8.20;99.90;;;;;;4976086;28;20793;-67
2022/02/10 19:07:39;;;;;;;6.57;5.40;;;8.20;99.90;;;;;;4975076;28;21027;-67
2022/02/10 19:10:08;;;;;;;6.13;3.83;;;8.20;99.90;;;;;;4974883;28;20486;-67
2022/02/10 19:15:22;;;;;;;7.00;5.20;;;8.00;99.90;;;;;;4974829;28;20545;-67
2022/02/10 19:17:49;;;;;;;4.30;3.90;;;7.90;99.90;;;;;;4974789;28;20430;-67
2022/02/10 19:20:16;;;;;;;5.10;3.57;;;7.90;99.90;;;;;;4974698;28;20936;-67
2022/02/10 19:22:43;;;;;;;4.17;3.63;;;8.00;99.90;;;;;;4974560;28;20514;-67
2022/02/10 19:25:10;;;;;;;4.80;3.60;;;7.90;99.90;;;;;;4974375;28;20514;-67
2022/02/10 19:27:37;;;;;;;4.57;4.10;;;7.90;99.90;;;;;;4974157;28;20523;-67
2022/02/10 19:30:07;;;;;;;7.57;4.83;;;7.80;99.90;;;;;;4974499;28;20577;-67
2022/02/10 19:32:33;;;;;;;5.00;3.70;;;7.90;99.90;;;;;;4974444;28;20416;-67
2022/02/10 19:34:59;;;;;;;6.10;3.97;;;7.80;99.90;;;;;;4974174;28;20566;-67
2022/02/10 19:37:28;;;;;;;4.17;3.77;;;7.70;99.90;;;;;;4974352;28;20415;-67
2022/02/10 19:39:58;;;;;;;4.10;3.80;;;7.70;99.90;;;;;;4974549;28;20423;-67
2022/02/10 19:42:27;;;;;;;5.53;3.80;;;7.70;99.90;;;;;;4974490;28;20929;-67
2022/02/10 19:44:59;;;;;;;6.87;3.80;;;7.70;99.90;;;;;;4974252;28;20451;-67
2022/02/10 19:47:32;;;;;;;6.50;4.13;;;7.70;99.90;;;;;;4974195;28;20522;-67
2022/02/10 19:49:58;;;;;;;6.60;4.43;;;7.70;99.90;;;;;;4974283;28;20434;-67
2022/02/10 19:52:25;;;;;;;4.80;4.10;;;7.70;99.90;;;;;;4974222;28;20486;-67
2022/02/10 19:54:55;;;;;;;5.03;4.53;;;7.60;99.90;;;;;;4974016;28;20542;-67
2022/02/10 19:57:23;;;;;;;6.20;4.50;;;7.60;99.90;;;;;;4973939;28;20420;-67
2022/02/10 19:59:49;;;;;;;6.40;4.60;;;7.60;99.90;;;;;;4974006;28;20419;-67
2022/02/10 20:02:17;;;;;;;6.30;4.30;;;7.60;99.90;;;;;;4974005;28;20419;-67
2022/02/10 20:04:42;;;;;;;6.97;4.60;;;7.60;99.90;;;;;;4973949;28;20442;-67
2022/02/10 20:07:10;;;;;;;6.00;4.30;;;7.60;99.90;;;;;;4973782;28;20511;-67
2022/02/10 20:09:36;;;;;;;5.23;4.60;;;7.50;99.90;;;;;;4973962;28;20247;-67
2022/02/10 20:12:02;;;;;;;5.07;4.60;;;7.50;99.90;;;;;;4973869;28;20510;-67
2022/02/10 20:14:28;;;;;;;7.60;5.43;;;7.50;99.90;;;;;;4973613;28;20188;-67
2022/02/10 20:16:55;;;;;;;15.03;4.70;;;7.50;99.90;;;;;;4973491;28;20466;-67
2022/02/10 20:19:21;;;;;;;7.33;6.23;;;7.50;99.90;;;;;;4973787;28;20207;-67
2022/02/10 20:21:47;;;;;;;5.60;4.07;;;7.40;99.90;;;;;;4973701;28;20865;-68
2022/02/10 20:24:12;;;;;;;4.23;3.83;;;7.40;99.90;;;;;;4973569;28;20263;-67
2022/02/10 20:26:38;;;;;;;4.17;3.40;;;7.50;99.90;;;;;;4973357;28;20835;-67
2022/02/10 20:29:04;;;;;;;4.20;3.90;;;7.40;99.90;;;;;;4973626;28;20176;-67
2022/02/10 20:31:32;;;;;;;4.23;3.77;;;7.40;99.90;;;;;;4973538;28;20774;-67
2022/02/10 20:33:58;;;;;;;5.10;4.50;;;7.50;99.90;;;;;;4973440;28;20455;-67
2022/02/10 20:36:23;;;;;;;5.23;4.13;;;7.50;99.90;;;;;;4973149;28;20460;-67
2022/02/10 20:38:54;;;;;;;6.87;4.93;;;7.60;99.90;;;;;;4972656;28;20420;-67
2022/02/10 20:41:20;;;;;;;5.60;3.47;;;7.70;99.90;;;;;;4973407;28;20175;-67
2022/02/10 20:43:48;;;;;;;4.80;3.63;;;7.80;99.90;;;;;;4973295;28;20440;-67
2022/02/10 20:46:17;;;;;;;4.80;3.97;;;7.90;99.90;;;;;;4973028;28;20192;-67
2022/02/10 20:48:43;;;;;;;5.13;4.60;;;7.90;99.90;;;;;;4973337;28;20514;-67
2022/02/10 20:51:15;;;;;;;5.10;4.60;;;7.80;99.90;;;;;;4973311;28;20451;-67
2022/02/10 20:53:44;;;;;;;5.20;4.70;;;7.70;99.90;;;;;;4973208;28;20721;-67
2022/02/10 20:56:11;;;;;;;5.70;4.47;;;7.60;99.90;;;;;;4972822;28;20460;-67
2022/02/10 20:58:38;;;;;;;8.77;3.97;;;7.70;99.90;;;;;;4973184;28;20420;-67
2022/02/10 21:01:06;;;;;;;5.13;4.10;;;7.80;99.90;;;;;;4973149;28;20422;-67
2022/02/10 21:03:35;;;;;;;5.80;4.43;;;7.80;99.90;;;;;;4973069;28;20440;-67
2022/02/10 21:06:16;;;;;;;4.23;3.83;;;7.90;99.90;;;;;;4972819;28;20423;-67
2022/02/10 21:08:57;;;;;;;4.93;4.37;;;8.00;99.90;;;;;;4973084;28;20510;-67
2022/02/10 21:11:25;;;;;;;8.80;4.23;;;8.00;99.90;;;;;;4973165;28;20832;-67
2022/02/10 21:13:51;;;;;;;6.70;4.57;;;8.00;99.90;;;;;;4973046;28;20451;-67
2022/02/10 21:16:16;;;;;;;9.60;3.73;;;8.00;99.90;;;;;;4972690;28;20489;-67
2022/02/10 21:18:43;;;;;;;6.67;4.60;;;8.10;99.90;;;;;;4973091;28;20208;-67
2022/02/10 21:21:14;;;;;;;4.53;4.07;;;8.10;99.90;;;;;;4972968;28;20172;-67
2022/02/10 21:23:50;;;;;;;6.77;5.00;;;8.20;99.90;;;;;;4972825;28;20447;-67
2022/02/10 21:26:19;;;;;;;7.67;6.10;;;8.20;99.90;;;;;;4972607;28;20940;-67
2022/02/10 21:28:45;;;;;;;6.77;6.10;;;8.20;99.90;;;;;;4972963;28;20419;-67
2022/02/10 21:31:11;;;;;;;6.87;5.53;;;8.20;99.90;;;;;;4972903;28;20426;-66
2022/02/10 21:38:47;;;;;;;7.50;5.80;;;7.90;99.90;;;;;;4977884;28;20510;-66
2022/02/10 21:41:58;;;;;;;6.80;5.23;;;7.70;99.90;;;;;;4972986;28;20400;-68
2022/02/10 21:57:50;;;;;;;8.20;6.80;;;7.50;99.90;;;;;;4957313;28;20424;-63
2022/02/10 22:03:26;;;;;;;6.10;5.17;;;7.50;99.90;;;;;;4957134;29;20421;-63
2022/02/10 22:10:53;;;;;;;8.00;5.77;;;7.60;99.90;;;;;;4957001;28;20770;-65
2022/02/10 22:16:30;;;;;;;6.67;5.97;;;7.50;99.90;;;;;;4956653;29;20467;-65
2022/02/10 22:19:36;;;;;;;7.43;5.80;;;7.50;99.90;;;;;;4957643;28;20412;-64
2022/02/10 22:21:53;;;;;;;6.17;5.60;;;7.50;99.90;;;;;;4972585;28;20999;-64
2022/02/10 22:24:20;;;;;;;10.20;6.27;;;7.60;99.90;;;;;;4975847;28;20462;-64
2022/02/10 22:26:46;;;;;;;8.00;6.40;;;7.60;99.90;;;;;;4976297;28;20427;-64
2022/02/10 22:29:22;;;;;;;7.13;5.53;;;7.70;99.90;;;;;;4976253;28;20420;-64
2022/02/10 22:32:29;;;;;;;6.63;5.90;;;7.70;99.90;;;;;;4976134;28;20946;-65
2022/02/10 22:34:41;;;;;;;7.23;5.63;;;7.70;99.90;;;;;;4973596;28;20546;-65
2022/02/10 22:37:09;;;;;;;5.83;5.27;;;7.80;99.90;;;;;;4975530;28;20423;-65
2022/02/10 22:39:41;;;;;;;5.17;4.67;;;7.80;99.90;;;;;;4975875;28;20415;-64
2022/02/10 22:42:06;;;;;;;8.80;5.53;;;8.00;99.90;;;;;;4975919;28;20414;-64
2022/02/10 22:44:33;;;;;;;6.73;5.10;;;8.00;99.90;;;;;;4975787;28;20534;-65
2022/02/10 22:47:01;;;;;;;5.40;4.90;;;8.10;99.90;;;;;;4975188;28;20202;-64
2022/02/10 22:49:26;;;;;;;6.10;5.30;;;8.10;99.90;;;;;;4975853;28;20762;-64
2022/02/10 22:51:52;;;;;;;7.10;5.70;;;8.10;99.90;;;;;;4975692;28;20422;-64
2022/02/10 22:54:17;;;;;;;7.50;4.87;;;8.10;99.90;;;;;;4975550;28;20194;-65
2022/02/10 22:56:45;;;;;;;5.17;4.67;;;8.10;99.90;;;;;;4975287;28;20214;-64
2022/02/10 22:59:11;;;;;;;6.60;5.03;;;8.20;99.90;;;;;;4975608;28;20219;-64
2022/02/10 23:01:38;;;;;;;5.03;4.53;;;8.20;99.90;;;;;;4974522;28;20455;-64
2022/02/10 23:04:04;;;;;;;6.53;5.40;;;8.10;99.90;;;;;;4975566;28;20543;-65
2022/02/10 23:06:30;;;;;;;7.40;5.60;;;8.10;99.90;;;;;;4975206;28;20427;-64
2022/02/10 23:08:56;;;;;;;7.00;5.90;;;7.90;99.90;;;;;;4975364;28;20419;-64
2022/02/10 23:11:29;;;;;;;7.23;4.83;;;7.90;99.90;;;;;;4975446;28;20168;-64
2022/02/10 23:13:59;;;;;;;8.37;5.90;;;8.00;99.90;;;;;;4975224;28;20208;-65
2022/02/10 23:16:26;;;;;;;6.57;5.43;;;8.00;99.90;;;;;;4974927;28;20549;-64
2022/02/10 23:18:53;;;;;;;5.47;4.43;;;8.00;99.90;;;;;;4975344;28;20412;-64
2022/02/10 23:21:18;;;;;;;6.33;5.70;;;8.10;99.90;;;;;;4975216;28;20434;-64
2022/02/10 23:23:47;;;;;;;7.90;6.00;;;8.10;99.90;;;;;;4974855;28;20937;-64
2022/02/10 23:26:16;;;;;;;6.70;6.00;;;8.10;99.90;;;;;;4974792;28;20227;-64
2022/02/10 23:28:54;;;;;;;11.70;5.57;;;8.10;99.90;;;;;;4974973;28;20431;-64
2022/02/10 23:31:22;;;;;;;7.40;6.67;;;8.20;99.90;;;;;;4975011;28;20426;-64
2022/02/10 23:33:52;;;;;;;7.10;6.20;;;8.10;99.90;;;;;;4974751;28;20435;-64
2022/02/10 23:36:39;;;;;;;6.97;5.43;;;8.20;99.90;;;;;;4974475;28;20473;-64
2022/02/10 23:39:16;;;;;;;12.33;6.27;;;8.10;99.90;;;;;;4974764;28;20416;-64
2022/02/10 23:44:27;;;;;;;7.87;5.57;;;8.00;99.90;;;;;;4974533;28;20439;-64
2022/02/10 23:46:54;;;;;;;7.30;6.60;;;8.10;99.90;;;;;;4974299;28;20427;-64
2022/02/10 23:49:22;;;;;;;6.03;5.07;;;8.10;99.90;;;;;;4974622;28;20515;-64
2022/02/10 23:51:55;;;;;;;8.80;6.60;;;8.10;99.90;;;;;;4974611;28;20951;-64
2022/02/10 23:54:21;;;;;;;7.00;5.77;;;8.00;99.90;;;;;;4974416;28;20498;-65
2022/02/10 23:56:53;;;;;;;7.93;5.73;;;8.00;99.90;;;;;;4974147;28;20466;-64
2022/02/10 23:59:35;;;;;;;7.13;5.97;;;8.00;99.90;;;;;;4974466;28;20496;-65
